createdAt,value
2023-04-12T00:04:58.088Z,51657.72
2023-04-12T00:10:03.696Z,51683.72
2023-04-12T00:15:09.319Z,51615.72
2023-04-12T00:20:13.632Z,51627.72
2023-04-12T00:25:19.674Z,51631.72
2023-04-12T00:30:24.125Z,51637.72
2023-04-12T00:35:28.641Z,51637.72
2023-04-12T00:40:34.586Z,51579.72
2023-04-12T00:45:39.436Z,51621.72
2023-04-12T00:50:44.972Z,51599.72
2023-04-12T00:55:52.788Z,51597.72
2023-04-12T01:00:59.408Z,51599.72
2023-04-12T01:06:14.115Z,51565.72
2023-04-12T01:11:26.872Z,51629.72
2023-04-12T01:16:44.659Z,51579.72
2023-04-12T01:22:03.870Z,51585.72
2023-04-12T01:27:16.505Z,51595.72
2023-04-12T01:32:23.666Z,51585.72
2023-04-12T01:37:28.614Z,51551.72
2023-04-12T01:42:33.037Z,51577.72
2023-04-12T01:47:39.713Z,51595.72
2023-04-12T01:52:50.987Z,51553.72
2023-04-12T01:57:55.836Z,51561.72
2023-04-12T02:03:01.990Z,51517.75
2023-04-12T02:08:07.888Z,51513.75
2023-04-12T02:13:12.455Z,51519.75
2023-04-12T02:18:18.260Z,51517.75
2023-04-12T02:23:22.487Z,51559.72
2023-04-12T02:28:26.660Z,51545.75
2023-04-12T02:33:33.148Z,51483.75
2023-04-12T02:38:38.318Z,51503.75
2023-04-12T02:43:44.461Z,51533.75
2023-04-12T02:48:51.242Z,51501.75
2023-04-12T02:53:57.510Z,51487.75
2023-04-12T02:59:07.060Z,51459.75
2023-04-12T03:04:31.253Z,51453.75
2023-04-12T03:09:39.000Z,51459.75
2023-04-12T03:14:44.165Z,51449.75
2023-04-12T03:19:50.852Z,51449.75
2023-04-12T03:24:58.043Z,51461.75
2023-04-12T03:30:02.948Z,51465.75
2023-04-12T03:35:13.403Z,51417.75
2023-04-12T03:40:19.468Z,51433.75
2023-04-12T03:45:32.117Z,51397.75
2023-04-12T03:50:44.739Z,51373.75
2023-04-12T03:55:56.747Z,51411.75
2023-04-12T04:01:07.077Z,51437.75
2023-04-12T04:06:14.777Z,51361.75
2023-04-12T04:11:19.148Z,51361.75
2023-04-12T04:16:29.519Z,51369.75
2023-04-12T04:21:36.051Z,51369.75
2023-04-12T04:26:41.689Z,51339.78
2023-04-12T04:31:57.700Z,51405.75
2023-04-12T04:37:04.681Z,51369.75
2023-04-12T04:42:09.814Z,51411.75
2023-04-12T04:47:22.570Z,51349.78
2023-04-12T04:52:28.229Z,51349.78
2023-04-12T04:57:37.623Z,51361.75
2023-04-12T05:02:43.201Z,51363.75
2023-04-12T05:07:52.008Z,51345.75
2023-04-12T05:12:56.719Z,51395.75
2023-04-12T05:18:04.395Z,51349.78
2023-04-12T05:23:10.433Z,51357.75
2023-04-12T05:28:16.937Z,51403.75
2023-04-12T05:33:21.468Z,51409.75
2023-04-12T05:38:28.000Z,51385.75
2023-04-12T05:43:37.929Z,51361.75
2023-04-12T05:48:44.527Z,51357.75
2023-04-12T05:53:50.171Z,51329.78
2023-04-12T05:58:55.048Z,51211.78
2023-04-12T06:03:59.841Z,51195.78
2023-04-12T06:09:06.360Z,51127.81
2023-04-12T06:14:11.853Z,51037.84
2023-04-12T06:19:16.616Z,51031.84
2023-04-12T06:24:22.265Z,50941.88
2023-04-12T06:29:26.528Z,51089.81
2023-04-12T06:34:32.299Z,51031.84
2023-04-12T06:39:42.869Z,51029.84
2023-04-12T06:44:46.985Z,50933.88
2023-04-12T06:49:54.782Z,51155.81
2023-04-12T06:55:01.770Z,51525.75
2023-04-12T07:00:06.884Z,51749.72
2023-04-12T07:05:11.426Z,51833.72
2023-04-12T07:10:17.164Z,51565.72
2023-04-12T07:15:21.325Z,51253.78
2023-04-12T07:20:25.469Z,50510.00
2023-04-12T07:25:31.159Z,50448.03
2023-04-12T07:30:35.750Z,50332.09
2023-04-12T07:35:40.533Z,50248.13
2023-04-12T07:40:49.232Z,50320.09
2023-04-12T07:45:56.483Z,50362.06
2023-04-12T07:51:00.671Z,51181.81
2023-04-12T07:56:07.260Z,51641.72
2023-04-12T08:01:13.482Z,51043.84
2023-04-12T08:06:18.798Z,50631.97
2023-04-12T08:11:24.527Z,50440.03
2023-04-12T08:16:28.760Z,50342.06
2023-04-12T08:21:34.055Z,50320.09
2023-04-12T08:26:40.114Z,50310.09
2023-04-12T08:31:48.421Z,50286.09
2023-04-12T08:36:52.909Z,50330.09
2023-04-12T08:41:58.796Z,50322.09
2023-04-12T08:47:03.796Z,50302.09
2023-04-12T08:52:09.094Z,50396.06
2023-04-12T08:57:16.533Z,50470.03
2023-04-12T09:02:20.886Z,50518.00
2023-04-12T09:07:28.296Z,50603.97
2023-04-12T09:12:33.975Z,50665.94
2023-04-12T09:17:39.204Z,50500.00
2023-04-12T09:22:45.694Z,50552.00
2023-04-12T09:27:52.803Z,50528.00
2023-04-12T09:32:57.271Z,50384.06
2023-04-12T09:38:09.229Z,50272.09
2023-04-12T09:43:15.989Z,50452.03
2023-04-12T09:48:22.274Z,50585.97
2023-04-12T09:53:26.992Z,50885.88
2023-04-12T09:58:34.566Z,50669.94
2023-04-12T10:03:39.178Z,50729.94
2023-04-12T10:08:44.162Z,50821.91
2023-04-12T10:13:51.610Z,50677.94
2023-04-12T10:18:56.831Z,50607.97
2023-04-12T10:24:02.380Z,50601.97
2023-04-12T10:29:33.316Z,50695.94
2023-04-12T10:34:47.213Z,50797.91
2023-04-12T10:39:58.454Z,50777.91
2023-04-12T10:45:36.921Z,50615.97
2023-04-12T10:50:43.997Z,50633.97
2023-04-12T10:55:49.029Z,50615.97
2023-04-12T11:01:19.102Z,50470.03
2023-04-12T11:06:42.992Z,50546.00
2023-04-12T11:12:16.882Z,50723.94
2023-04-12T11:17:31.458Z,50919.88
2023-04-12T11:22:44.960Z,50861.88
2023-04-12T11:28:05.439Z,50667.94
2023-04-12T11:33:32.910Z,50478.03
2023-04-12T11:38:39.435Z,50510.00
2023-04-12T11:43:45.223Z,50597.97
2023-04-12T11:48:50.112Z,50524.00
2023-04-12T11:53:59.989Z,50577.97
2023-04-12T11:59:05.164Z,50685.94
2023-04-12T12:04:10.565Z,50488.00
2023-04-12T12:09:16.897Z,50685.94
2023-04-12T12:14:21.820Z,50713.94
2023-04-12T12:19:35.888Z,50587.97
2023-04-12T12:24:47.347Z,50522.00
2023-04-12T12:29:54.246Z,50544.00
2023-04-12T12:35:04.437Z,50486.00
2023-04-12T12:40:15.238Z,50440.03
2023-04-12T12:45:22.962Z,50522.00
2023-04-12T12:50:29.784Z,50412.03
2023-04-12T12:55:36.508Z,50334.09
2023-04-12T13:00:43.321Z,50428.03
2023-04-12T13:05:50.192Z,50502.00
2023-04-12T13:10:56.251Z,50661.94
2023-04-12T13:16:00.989Z,50837.91
2023-04-12T13:21:08.520Z,50815.91
2023-04-12T13:26:14.951Z,50951.84
2023-04-12T13:31:23.053Z,50629.97
2023-04-12T13:36:29.270Z,50749.91
2023-04-12T13:41:36.897Z,50569.97
2023-04-12T13:46:42.449Z,50478.03
2023-04-12T13:51:51.682Z,50346.06
2023-04-12T13:56:58.063Z,50298.09
2023-04-12T14:02:08.415Z,50318.09
2023-04-12T14:07:12.881Z,50360.06
2023-04-12T14:12:18.772Z,51091.81
2023-04-12T14:17:23.579Z,51745.72
2023-04-12T14:22:30.093Z,52325.72
2023-04-12T14:27:39.672Z,52275.72
2023-04-12T14:32:46.765Z,51871.72
2023-04-12T14:37:56.076Z,52105.69
2023-04-12T14:43:02.237Z,51865.72
2023-04-12T14:48:07.400Z,51235.78
2023-04-12T14:53:15.178Z,51189.81
2023-04-12T14:58:22.099Z,50633.97
2023-04-12T15:03:30.828Z,50625.97
2023-04-12T15:08:41.596Z,50719.94
2023-04-12T15:13:47.511Z,50609.97
2023-04-12T15:18:52.651Z,50318.09
2023-04-12T15:23:59.667Z,50154.16
2023-04-12T15:29:08.892Z,50124.19
2023-04-12T15:34:13.659Z,50198.13
2023-04-12T15:39:19.279Z,50212.13
2023-04-12T15:44:30.640Z,50222.13
2023-04-12T15:49:35.913Z,50120.19
2023-04-12T15:54:44.822Z,49994.25
2023-04-12T15:59:54.912Z,49974.25
2023-04-12T16:05:00.892Z,49896.28
2023-04-12T16:10:09.265Z,49926.28
2023-04-12T16:15:17.364Z,49920.28
2023-04-12T16:20:25.830Z,49898.28
2023-04-12T16:25:34.442Z,49908.28
2023-04-12T16:30:44.276Z,49888.31
2023-04-12T16:35:48.742Z,49870.31
2023-04-12T16:40:53.050Z,49888.31
2023-04-12T16:45:59.612Z,49836.31
2023-04-12T16:51:05.577Z,49832.34
2023-04-12T16:56:10.140Z,49820.34
2023-04-12T17:01:17.558Z,49854.31
2023-04-12T17:06:22.370Z,49782.34
2023-04-12T17:11:26.851Z,49844.31
2023-04-12T17:16:32.536Z,49814.34
2023-04-12T17:21:42.262Z,49824.34
2023-04-12T17:26:47.029Z,49826.34
2023-04-12T17:31:54.336Z,49772.38
2023-04-12T17:36:59.465Z,49796.34
2023-04-12T17:42:04.116Z,49746.38
2023-04-12T17:47:09.683Z,49786.34
2023-04-12T17:52:14.706Z,49768.38
2023-04-12T17:57:19.205Z,49792.34
2023-04-12T18:02:25.242Z,49758.38
2023-04-12T18:07:30.746Z,49760.38
2023-04-12T18:12:35.289Z,49792.34
2023-04-12T18:17:41.097Z,49782.34
2023-04-12T18:22:46.082Z,49758.38
2023-04-12T18:27:50.878Z,49726.38
2023-04-12T18:32:56.790Z,49702.41
2023-04-12T18:38:01.332Z,49718.41
2023-04-12T18:43:05.930Z,49716.41
2023-04-12T18:48:11.928Z,49690.41
2023-04-12T18:53:16.172Z,49678.41
2023-04-12T18:58:20.890Z,49718.41
2023-04-12T19:03:28.447Z,49692.41
2023-04-12T19:08:33.149Z,49654.44
2023-04-12T19:13:38.519Z,49668.44
2023-04-12T19:18:44.323Z,49684.41
2023-04-12T19:23:48.634Z,49684.41
2023-04-12T19:28:55.860Z,49678.41
2023-04-12T19:34:01.739Z,49766.38
2023-04-12T19:39:06.140Z,49774.38
2023-04-12T19:44:10.372Z,49782.34
2023-04-12T19:49:16.035Z,49808.34
2023-04-12T19:54:23.793Z,49850.31
2023-04-12T19:59:31.032Z,49830.34
2023-04-12T20:04:37.029Z,49842.31
2023-04-12T20:09:41.375Z,49878.31
2023-04-12T20:14:45.692Z,49924.28
2023-04-12T20:19:53.091Z,49944.28
2023-04-12T20:25:00.273Z,49968.25
2023-04-12T20:30:05.368Z,49992.25
2023-04-12T20:35:12.894Z,49990.25
2023-04-12T20:40:17.076Z,49988.25
2023-04-12T20:45:21.955Z,50008.25
2023-04-12T20:50:30.718Z,50042.22
2023-04-12T20:55:35.153Z,50092.19
2023-04-12T21:00:39.704Z,50102.19
2023-04-12T21:05:46.261Z,50140.16
2023-04-12T21:10:51.043Z,50206.13
2023-04-12T21:15:55.794Z,50252.13
2023-04-12T21:21:02.302Z,50344.06
2023-04-12T21:26:07.216Z,50462.03
2023-04-12T21:31:11.686Z,50508.00
2023-04-12T21:36:18.288Z,50619.97
2023-04-12T21:41:23.906Z,50675.94
2023-04-12T21:46:28.985Z,50729.94
2023-04-12T21:51:34.720Z,50789.91
2023-04-12T21:56:39.182Z,50831.91
2023-04-12T22:01:43.718Z,50887.88
2023-04-12T22:06:51.020Z,50885.88
2023-04-12T22:11:57.031Z,50987.84
2023-04-12T22:17:01.370Z,51065.81
2023-04-12T22:22:08.545Z,51097.81
2023-04-12T22:27:12.774Z,51125.81
2023-04-12T22:32:16.953Z,51139.81
2023-04-12T22:37:23.210Z,51175.81
2023-04-12T22:42:30.062Z,51193.78
2023-04-12T22:47:34.685Z,51219.78
2023-04-12T22:52:40.726Z,51215.78
2023-04-12T22:57:45.197Z,51233.78
2023-04-12T23:02:50.535Z,51259.78
2023-04-12T23:07:56.320Z,51281.78
2023-04-12T23:13:00.531Z,51277.78
2023-04-12T23:18:05.530Z,51335.78
2023-04-12T23:23:11.334Z,51351.75
2023-04-12T23:28:19.446Z,51309.78
2023-04-12T23:33:25.494Z,51345.75
2023-04-12T23:38:33.992Z,51329.78
2023-04-12T23:43:38.309Z,51315.78
2023-04-12T23:48:42.471Z,51357.75
2023-04-12T23:53:48.220Z,51317.78
2023-04-12T23:58:52.526Z,51329.78
